Página principal
METAR-TAF:

METAR-TAF

Aeroportos :

Aeroporto Internacional do Cairo

Cairo, Egipto

latitude: 30-08N, longitude: 031-24E, altura: 64 m

Observação actual do tempo

O boletim foi feito há 33 minutos, às 01:30 UTC
Vento 7 kt de norte
Temperatura 27°C
Humidade 79%
Pressão 1010 hPa
Visibilidade 10 km ou mais
Nuvens dispersasa uma altura de 2500 ft

METAR: HECA 220130Z 36007KT 9999 SCT025 27/23 Q1010 NOSIG

Hora: 04:03 (02:03 UTC)

Previsão

O boletim foi feito há 3 horas e 3 minutos, às 23:00 UTC
Previsão válida de 22 às 00 UTC a 23 às 06 UTC
Vento 8 kt de norte
Visibilidade 10 km ou mais
Nuvens dispersasa uma altura de 2500 ft
Probabilidade 40% :
Temporariamente
de 22 às 02 UTC a 22 às 08 UTC
Vento 3 kt com direcção variável
Visibilidade: 4000 m
neblina

TAF: HECA 212300Z 2200/2306 35008KT 9999 SCT025 PROB40 TEMPO 2202/2208 VRB03KT 4000 BR NSC

Observações e previsões do tempo de mais de 4000 aeroportos (mensagens METAR e TAF).

As estações disponíveis são os pontos amarelos e vermelhos sobre o mapa.

Mova o rato sobre o mapa para ver o nome da estação.

Depois clique no ponto para visualizar as observações e previsões meteorológicas.

Para alterar o mapa : clique nos botões verdes com uma cruz preta para aumentar o zoom; no botão verde com uma pitada de zoom; ou nas setas verdes para mapas adjacentes.


METAR-TAF: